Jeanerette, Louisiana
Current Conditions -  °F | °C
As of 5:53 AM on Tuesday 27 Jan 2015 (Local Time) from KARA Reporting Station
Clear Clear  
Wind Chill: 50°   Ceiling: Unl
Heat Index: 50°   Visibility: NA
Dew Point: 45°   Wind: 6mph
Humidity: 83%   Direction: 280°W
Pressure: 30.09"   Gusts: NA
Location:  29.91°N, 91.66°W
Report Text: KARA 271153Z 28005KT CLR 10/07 A3009 RMK AO2 SLP188 7//// T01000072 10100 20061 55005 $
Loading
Personal Weather Stations






























Interactive Weather Map New forecast layout! Learn more

10-Day Weather Forecast

Advertisements
Track Severe Weather on mobile